sensor_id;sensor_type;location;lat;lon;timestamp;P1;durP1;ratioP1;P2;durP2;ratioP2
46429;SDS011;32131;53.454;-6.180;2023-01-25T00:00:03;11.35;;;6.28;;
46429;SDS011;32131;53.454;-6.180;2023-01-25T00:02:38;14.43;;;6.90;;
46429;SDS011;32131;53.454;-6.180;2023-01-25T00:05:14;10.13;;;7.07;;
46429;SDS011;32131;53.454;-6.180;2023-01-25T00:07:43;12.13;;;6.47;;
46429;SDS011;32131;53.454;-6.180;2023-01-25T00:13:18;12.82;;;7.25;;
46429;SDS011;32131;53.454;-6.180;2023-01-25T00:15:48;11.73;;;6.45;;
46429;SDS011;32131;53.454;-6.180;2023-01-25T00:18:20;10.82;;;6.45;;
46429;SDS011;32131;53.454;-6.180;2023-01-25T00:20:50;10.38;;;6.35;;
46429;SDS011;32131;53.454;-6.180;2023-01-25T00:23:22;17.52;;;7.38;;
46429;SDS011;32131;53.454;-6.180;2023-01-25T00:25:59;9.98;;;6.43;;
46429;SDS011;32131;53.454;-6.180;2023-01-25T00:28:27;11.57;;;7.20;;
46429;SDS011;32131;53.454;-6.180;2023-01-25T00:30:57;10.70;;;5.90;;
46429;SDS011;32131;53.454;-6.180;2023-01-25T00:33:37;14.93;;;6.53;;
46429;SDS011;32131;53.454;-6.180;2023-01-25T00:36:26;7.67;;;5.23;;
46429;SDS011;32131;53.454;-6.180;2023-01-25T00:39:09;9.25;;;5.95;;
46429;SDS011;32131;53.454;-6.180;2023-01-25T00:41:42;10.57;;;6.32;;
46429;SDS011;32131;53.454;-6.180;2023-01-25T00:44:11;9.13;;;5.65;;
46429;SDS011;32131;53.454;-6.180;2023-01-25T00:46:42;8.50;;;5.72;;
46429;SDS011;32131;53.454;-6.180;2023-01-25T00:49:20;10.55;;;6.15;;
46429;SDS011;32131;53.454;-6.180;2023-01-25T00:51:59;9.68;;;5.82;;
46429;SDS011;32131;53.454;-6.180;2023-01-25T00:54:36;9.57;;;5.63;;
46429;SDS011;32131;53.454;-6.180;2023-01-25T00:57:09;12.57;;;6.63;;
46429;SDS011;32131;53.454;-6.180;2023-01-25T00:59:46;10.73;;;6.15;;
46429;SDS011;32131;53.454;-6.180;2023-01-25T01:02:34;10.00;;;5.82;;
46429;SDS011;32131;53.454;-6.180;2023-01-25T01:05:12;10.85;;;6.90;;
46429;SDS011;32131;53.454;-6.180;2023-01-25T01:07:55;13.85;;;7.13;;
46429;SDS011;32131;53.454;-6.180;2023-01-25T01:10:30;11.73;;;7.03;;
46429;SDS011;32131;53.454;-6.180;2023-01-25T01:13:20;13.48;;;7.68;;
46429;SDS011;32131;53.454;-6.180;2023-01-25T01:15:51;12.50;;;7.82;;
46429;SDS011;32131;53.454;-6.180;2023-01-25T01:18:40;13.18;;;8.00;;
46429;SDS011;32131;53.454;-6.180;2023-01-25T01:21:21;12.05;;;7.63;;
46429;SDS011;32131;53.454;-6.180;2023-01-25T01:23:49;14.75;;;8.60;;
46429;SDS011;32131;53.454;-6.180;2023-01-25T01:26:18;10.65;;;7.18;;
46429;SDS011;32131;53.454;-6.180;2023-01-25T01:28:50;15.63;;;8.35;;
46429;SDS011;32131;53.454;-6.180;2023-01-25T01:31:23;13.95;;;8.30;;
46429;SDS011;32131;53.454;-6.180;2023-01-25T01:33:55;15.43;;;8.77;;
46429;SDS011;32131;53.454;-6.180;2023-01-25T01:36:56;15.20;;;9.13;;
46429;SDS011;32131;53.454;-6.180;2023-01-25T01:39:38;17.38;;;9.52;;
46429;SDS011;32131;53.454;-6.180;2023-01-25T01:42:11;16.35;;;8.10;;
46429;SDS011;32131;53.454;-6.180;2023-01-25T01:44:56;15.00;;;9.35;;
46429;SDS011;32131;53.454;-6.180;2023-01-25T01:47:59;14.65;;;8.35;;
46429;SDS011;32131;53.454;-6.180;2023-01-25T01:50:55;16.15;;;9.35;;
46429;SDS011;32131;53.454;-6.180;2023-01-25T01:53:43;15.05;;;9.68;;
46429;SDS011;32131;53.454;-6.180;2023-01-25T01:59:00;14.75;;;8.73;;
46429;SDS011;32131;53.454;-6.180;2023-01-25T02:01:46;15.48;;;8.88;;
46429;SDS011;32131;53.454;-6.180;2023-01-25T02:04:24;20.77;;;8.90;;
46429;SDS011;32131;53.454;-6.180;2023-01-25T02:07:07;15.27;;;8.93;;
46429;SDS011;32131;53.454;-6.180;2023-01-25T02:09:44;16.67;;;9.43;;
46429;SDS011;32131;53.454;-6.180;2023-01-25T02:12:13;14.23;;;9.50;;
46429;SDS011;32131;53.454;-6.180;2023-01-25T02:14:54;14.80;;;9.43;;
46429;SDS011;32131;53.454;-6.180;2023-01-25T02:17:35;17.95;;;9.60;;
46429;SDS011;32131;53.454;-6.180;2023-01-25T02:20:11;15.48;;;8.70;;
46429;SDS011;32131;53.454;-6.180;2023-01-25T02:22:47;17.38;;;9.98;;
46429;SDS011;32131;53.454;-6.180;2023-01-25T02:25:36;16.77;;;9.25;;
46429;SDS011;32131;53.454;-6.180;2023-01-25T02:28:20;17.27;;;9.90;;
46429;SDS011;32131;53.454;-6.180;2023-01-25T02:30:58;17.25;;;10.25;;
46429;SDS011;32131;53.454;-6.180;2023-01-25T02:33:35;16.80;;;9.77;;
46429;SDS011;32131;53.454;-6.180;2023-01-25T02:36:14;15.10;;;8.70;;
46429;SDS011;32131;53.454;-6.180;2023-01-25T02:38:52;18.38;;;9.90;;
46429;SDS011;32131;53.454;-6.180;2023-01-25T02:41:29;15.55;;;9.20;;
46429;SDS011;32131;53.454;-6.180;2023-01-25T02:44:03;12.80;;;7.93;;
46429;SDS011;32131;53.454;-6.180;2023-01-25T02:46:37;13.48;;;8.23;;
46429;SDS011;32131;53.454;-6.180;2023-01-25T02:49:08;17.58;;;8.60;;
46429;SDS011;32131;53.454;-6.180;2023-01-25T02:51:38;13.57;;;8.52;;
46429;SDS011;32131;53.454;-6.180;2023-01-25T02:54:12;14.70;;;7.93;;
46429;SDS011;32131;53.454;-6.180;2023-01-25T02:56:46;14.13;;;8.13;;
46429;SDS011;32131;53.454;-6.180;2023-01-25T02:59:30;13.90;;;8.23;;
46429;SDS011;32131;53.454;-6.180;2023-01-25T03:02:24;14.90;;;9.23;;
46429;SDS011;32131;53.454;-6.180;2023-01-25T03:07:44;16.98;;;9.68;;
46429;SDS011;32131;53.454;-6.180;2023-01-25T03:10:34;16.35;;;9.20;;
46429;SDS011;32131;53.454;-6.180;2023-01-25T03:13:35;13.93;;;8.45;;
46429;SDS011;32131;53.454;-6.180;2023-01-25T03:16:07;16.38;;;8.82;;
46429;SDS011;32131;53.454;-6.180;2023-01-25T03:18:51;14.00;;;8.65;;
46429;SDS011;32131;53.454;-6.180;2023-01-25T03:21:34;16.92;;;8.45;;
46429;SDS011;32131;53.454;-6.180;2023-01-25T03:24:06;13.82;;;8.65;;
46429;SDS011;32131;53.454;-6.180;2023-01-25T03:26:53;13.57;;;7.90;;
46429;SDS011;32131;53.454;-6.180;2023-01-25T03:29:46;15.68;;;8.27;;
46429;SDS011;32131;53.454;-6.180;2023-01-25T03:32:17;14.25;;;8.90;;
46429;SDS011;32131;53.454;-6.180;2023-01-25T03:34:47;15.65;;;8.77;;
46429;SDS011;32131;53.454;-6.180;2023-01-25T03:37:45;13.48;;;7.30;;
46429;SDS011;32131;53.454;-6.180;2023-01-25T03:40:34;14.40;;;8.27;;
46429;SDS011;32131;53.454;-6.180;2023-01-25T03:43:14;14.00;;;7.38;;
46429;SDS011;32131;53.454;-6.180;2023-01-25T03:45:56;11.13;;;7.72;;
46429;SDS011;32131;53.454;-6.180;2023-01-25T03:49:04;12.32;;;6.75;;
46429;SDS011;32131;53.454;-6.180;2023-01-25T03:51:39;12.18;;;7.45;;
46429;SDS011;32131;53.454;-6.180;2023-01-25T03:55:01;14.98;;;7.60;;
46429;SDS011;32131;53.454;-6.180;2023-01-25T03:58:17;17.25;;;7.47;;
46429;SDS011;32131;53.454;-6.180;2023-01-25T04:01:19;11.70;;;6.60;;
46429;SDS011;32131;53.454;-6.180;2023-01-25T04:04:05;15.73;;;7.85;;
46429;SDS011;32131;53.454;-6.180;2023-01-25T04:07:30;15.80;;;7.60;;
46429;SDS011;32131;53.454;-6.180;2023-01-25T04:13:55;15.38;;;8.30;;
46429;SDS011;32131;53.454;-6.180;2023-01-25T04:17:09;16.02;;;8.30;;
46429;SDS011;32131;53.454;-6.180;2023-01-25T04:19:44;14.07;;;7.65;;
46429;SDS011;32131;53.454;-6.180;2023-01-25T04:22:29;17.00;;;8.55;;
46429;SDS011;32131;53.454;-6.180;2023-01-25T04:25:08;16.83;;;8.48;;
46429;SDS011;32131;53.454;-6.180;2023-01-25T04:27:51;20.55;;;9.45;;
46429;SDS011;32131;53.454;-6.180;2023-01-25T04:31:04;15.43;;;8.93;;
46429;SDS011;32131;53.454;-6.180;2023-01-25T04:33:39;17.70;;;9.25;;
46429;SDS011;32131;53.454;-6.180;2023-01-25T04:36:44;15.85;;;8.93;;
46429;SDS011;32131;53.454;-6.180;2023-01-25T04:39:16;15.93;;;8.32;;
46429;SDS011;32131;53.454;-6.180;2023-01-25T04:42:27;14.55;;;8.68;;
46429;SDS011;32131;53.454;-6.180;2023-01-25T04:45:05;16.48;;;9.20;;
46429;SDS011;32131;53.454;-6.180;2023-01-25T04:47:39;15.00;;;9.13;;
46429;SDS011;32131;53.454;-6.180;2023-01-25T04:50:11;15.38;;;7.80;;
46429;SDS011;32131;53.454;-6.180;2023-01-25T04:52:46;17.40;;;9.38;;
46429;SDS011;32131;53.454;-6.180;2023-01-25T04:55:21;17.23;;;9.07;;
46429;SDS011;32131;53.454;-6.180;2023-01-25T04:57:50;20.77;;;10.02;;
46429;SDS011;32131;53.454;-6.180;2023-01-25T05:00:18;17.77;;;9.77;;
46429;SDS011;32131;53.454;-6.180;2023-01-25T05:02:52;12.43;;;8.65;;
46429;SDS011;32131;53.454;-6.180;2023-01-25T05:05:25;16.38;;;9.80;;
46429;SDS011;32131;53.454;-6.180;2023-01-25T05:08:21;16.67;;;10.05;;
46429;SDS011;32131;53.454;-6.180;2023-01-25T05:10:57;19.47;;;9.80;;
46429;SDS011;32131;53.454;-6.180;2023-01-25T05:13:34;16.60;;;8.63;;
46429;SDS011;32131;53.454;-6.180;2023-01-25T05:16:09;17.15;;;8.43;;
46429;SDS011;32131;53.454;-6.180;2023-01-25T05:19:08;16.58;;;9.95;;
46429;SDS011;32131;53.454;-6.180;2023-01-25T05:21:53;14.45;;;8.10;;
46429;SDS011;32131;53.454;-6.180;2023-01-25T05:24:37;21.52;;;8.77;;
46429;SDS011;32131;53.454;-6.180;2023-01-25T05:27:11;20.00;;;9.80;;
46429;SDS011;32131;53.454;-6.180;2023-01-25T05:29:46;18.05;;;9.60;;
46429;SDS011;32131;53.454;-6.180;2023-01-25T05:32:20;16.65;;;9.43;;
46429;SDS011;32131;53.454;-6.180;2023-01-25T05:34:51;15.38;;;8.48;;
46429;SDS011;32131;53.454;-6.180;2023-01-25T05:37:27;14.00;;;8.75;;
46429;SDS011;32131;53.454;-6.180;2023-01-25T05:40:07;18.50;;;8.82;;
46429;SDS011;32131;53.454;-6.180;2023-01-25T05:42:49;15.55;;;8.00;;
46429;SDS011;32131;53.454;-6.180;2023-01-25T05:45:45;16.83;;;8.88;;
46429;SDS011;32131;53.454;-6.180;2023-01-25T05:48:27;14.75;;;6.72;;
46429;SDS011;32131;53.454;-6.180;2023-01-25T05:50:56;17.65;;;9.23;;
46429;SDS011;32131;53.454;-6.180;2023-01-25T05:53:26;12.80;;;6.97;;
46429;SDS011;32131;53.454;-6.180;2023-01-25T05:56:04;15.38;;;7.80;;
46429;SDS011;32131;53.454;-6.180;2023-01-25T05:58:34;13.55;;;6.85;;
46429;SDS011;32131;53.454;-6.180;2023-01-25T06:01:11;14.10;;;7.50;;
46429;SDS011;32131;53.454;-6.180;2023-01-25T06:03:40;10.93;;;6.53;;
46429;SDS011;32131;53.454;-6.180;2023-01-25T06:06:17;12.48;;;6.40;;
46429;SDS011;32131;53.454;-6.180;2023-01-25T06:08:51;13.25;;;6.90;;
46429;SDS011;32131;53.454;-6.180;2023-01-25T06:11:25;13.63;;;6.55;;
46429;SDS011;32131;53.454;-6.180;2023-01-25T06:13:58;13.13;;;6.15;;
46429;SDS011;32131;53.454;-6.180;2023-01-25T06:16:36;15.40;;;6.60;;
46429;SDS011;32131;53.454;-6.180;2023-01-25T06:22:15;10.45;;;5.93;;
46429;SDS011;32131;53.454;-6.180;2023-01-25T06:24:49;9.40;;;5.38;;
46429;SDS011;32131;53.454;-6.180;2023-01-25T06:27:18;11.57;;;5.70;;
46429;SDS011;32131;53.454;-6.180;2023-01-25T06:29:47;14.30;;;5.88;;
46429;SDS011;32131;53.454;-6.180;2023-01-25T06:32:19;10.45;;;5.72;;
46429;SDS011;32131;53.454;-6.180;2023-01-25T06:34:53;16.75;;;5.65;;
46429;SDS011;32131;53.454;-6.180;2023-01-25T06:37:23;9.23;;;5.22;;
46429;SDS011;32131;53.454;-6.180;2023-01-25T06:39:58;7.97;;;4.65;;
46429;SDS011;32131;53.454;-6.180;2023-01-25T06:42:33;11.93;;;5.30;;
46429;SDS011;32131;53.454;-6.180;2023-01-25T06:45:05;9.93;;;5.30;;
46429;SDS011;32131;53.454;-6.180;2023-01-25T06:47:43;11.70;;;5.45;;
46429;SDS011;32131;53.454;-6.180;2023-01-25T06:50:15;9.05;;;4.85;;
46429;SDS011;32131;53.454;-6.180;2023-01-25T06:52:50;9.40;;;5.07;;
46429;SDS011;32131;53.454;-6.180;2023-01-25T06:55:26;8.82;;;5.43;;
46429;SDS011;32131;53.454;-6.180;2023-01-25T06:57:58;8.60;;;4.65;;
46429;SDS011;32131;53.454;-6.180;2023-01-25T07:00:27;11.68;;;5.18;;
46429;SDS011;32131;53.454;-6.180;2023-01-25T07:02:58;9.18;;;4.65;;
46429;SDS011;32131;53.454;-6.180;2023-01-25T07:05:29;10.02;;;5.28;;
46429;SDS011;32131;53.454;-6.180;2023-01-25T07:07:58;7.93;;;4.60;;
46429;SDS011;32131;53.454;-6.180;2023-01-25T07:10:30;10.77;;;5.30;;
46429;SDS011;32131;53.454;-6.180;2023-01-25T07:13:07;7.88;;;4.50;;
46429;SDS011;32131;53.454;-6.180;2023-01-25T07:15:51;14.88;;;5.10;;
46429;SDS011;32131;53.454;-6.180;2023-01-25T07:18:21;9.88;;;5.47;;
46429;SDS011;32131;53.454;-6.180;2023-01-25T07:20:51;8.80;;;5.40;;
46429;SDS011;32131;53.454;-6.180;2023-01-25T07:23:23;7.93;;;4.60;;
46429;SDS011;32131;53.454;-6.180;2023-01-25T07:25:55;6.03;;;4.20;;
46429;SDS011;32131;53.454;-6.180;2023-01-25T07:28:34;8.07;;;4.47;;
46429;SDS011;32131;53.454;-6.180;2023-01-25T07:31:05;8.95;;;4.90;;
46429;SDS011;32131;53.454;-6.180;2023-01-25T07:33:34;12.48;;;5.95;;
46429;SDS011;32131;53.454;-6.180;2023-01-25T07:36:08;8.15;;;4.80;;
46429;SDS011;32131;53.454;-6.180;2023-01-25T07:38:46;10.60;;;4.57;;
46429;SDS011;32131;53.454;-6.180;2023-01-25T07:41:22;9.32;;;4.60;;
46429;SDS011;32131;53.454;-6.180;2023-01-25T07:43:51;7.43;;;4.45;;
46429;SDS011;32131;53.454;-6.180;2023-01-25T07:46:20;13.20;;;4.97;;
46429;SDS011;32131;53.454;-6.180;2023-01-25T07:48:50;8.57;;;4.35;;
46429;SDS011;32131;53.454;-6.180;2023-01-25T07:51:20;7.57;;;4.45;;
46429;SDS011;32131;53.454;-6.180;2023-01-25T07:53:56;10.77;;;4.55;;
46429;SDS011;32131;53.454;-6.180;2023-01-25T07:56:42;7.07;;;4.22;;
46429;SDS011;32131;53.454;-6.180;2023-01-25T07:59:18;7.50;;;4.35;;
46429;SDS011;32131;53.454;-6.180;2023-01-25T08:01:46;8.48;;;3.65;;
46429;SDS011;32131;53.454;-6.180;2023-01-25T08:04:18;6.47;;;2.85;;
46429;SDS011;32131;53.454;-6.180;2023-01-25T08:06:53;7.93;;;4.00;;
46429;SDS011;32131;53.454;-6.180;2023-01-25T08:09:24;9.48;;;4.20;;
46429;SDS011;32131;53.454;-6.180;2023-01-25T08:11:56;13.90;;;4.93;;
46429;SDS011;32131;53.454;-6.180;2023-01-25T08:14:29;7.72;;;4.90;;
46429;SDS011;32131;53.454;-6.180;2023-01-25T08:16:58;7.70;;;4.78;;
46429;SDS011;32131;53.454;-6.180;2023-01-25T08:19:27;14.83;;;5.07;;
46429;SDS011;32131;53.454;-6.180;2023-01-25T08:21:59;7.68;;;4.35;;
46429;SDS011;32131;53.454;-6.180;2023-01-25T08:26:59;8.50;;;4.53;;
46429;SDS011;32131;53.454;-6.180;2023-01-25T08:29:30;9.20;;;5.05;;
46429;SDS011;32131;53.454;-6.180;2023-01-25T08:32:01;7.05;;;4.40;;
46429;SDS011;32131;53.454;-6.180;2023-01-25T08:34:31;7.03;;;4.07;;
46429;SDS011;32131;53.454;-6.180;2023-01-25T08:37:01;6.95;;;4.18;;
46429;SDS011;32131;53.454;-6.180;2023-01-25T08:39:31;7.45;;;4.13;;
46429;SDS011;32131;53.454;-6.180;2023-01-25T08:42:01;7.47;;;3.92;;
46429;SDS011;32131;53.454;-6.180;2023-01-25T08:44:41;6.30;;;3.47;;
46429;SDS011;32131;53.454;-6.180;2023-01-25T08:47:12;9.27;;;3.90;;
46429;SDS011;32131;53.454;-6.180;2023-01-25T08:49:43;7.00;;;3.95;;
46429;SDS011;32131;53.454;-6.180;2023-01-25T08:52:14;9.27;;;4.15;;
46429;SDS011;32131;53.454;-6.180;2023-01-25T08:54:47;7.28;;;4.18;;
46429;SDS011;32131;53.454;-6.180;2023-01-25T08:57:17;7.25;;;3.78;;
46429;SDS011;32131;53.454;-6.180;2023-01-25T08:59:46;7.13;;;3.72;;
46429;SDS011;32131;53.454;-6.180;2023-01-25T09:02:15;9.20;;;3.85;;
46429;SDS011;32131;53.454;-6.180;2023-01-25T09:04:47;7.20;;;3.95;;
46429;SDS011;32131;53.454;-6.180;2023-01-25T09:07:16;12.20;;;4.38;;
46429;SDS011;32131;53.454;-6.180;2023-01-25T09:09:45;6.85;;;4.20;;
46429;SDS011;32131;53.454;-6.180;2023-01-25T09:12:29;5.38;;;3.17;;
46429;SDS011;32131;53.454;-6.180;2023-01-25T09:14:58;7.55;;;4.00;;
46429;SDS011;32131;53.454;-6.180;2023-01-25T09:17:31;5.72;;;3.30;;
46429;SDS011;32131;53.454;-6.180;2023-01-25T09:20:00;6.45;;;3.13;;
46429;SDS011;32131;53.454;-6.180;2023-01-25T09:22:49;11.52;;;4.05;;
46429;SDS011;32131;53.454;-6.180;2023-01-25T09:25:21;8.07;;;3.47;;
46429;SDS011;32131;53.454;-6.180;2023-01-25T09:27:54;7.75;;;3.30;;
46429;SDS011;32131;53.454;-6.180;2023-01-25T09:30:23;6.75;;;3.42;;
46429;SDS011;32131;53.454;-6.180;2023-01-25T09:33:12;5.40;;;2.90;;
46429;SDS011;32131;53.454;-6.180;2023-01-25T09:35:46;9.98;;;3.88;;
46429;SDS011;32131;53.454;-6.180;2023-01-25T09:38:15;5.68;;;3.03;;
46429;SDS011;32131;53.454;-6.180;2023-01-25T09:40:51;5.03;;;2.95;;
46429;SDS011;32131;53.454;-6.180;2023-01-25T09:43:36;6.07;;;3.05;;
46429;SDS011;32131;53.454;-6.180;2023-01-25T09:46:23;8.32;;;4.00;;
46429;SDS011;32131;53.454;-6.180;2023-01-25T09:49:02;6.03;;;3.42;;
46429;SDS011;32131;53.454;-6.180;2023-01-25T09:51:58;10.18;;;3.65;;
46429;SDS011;32131;53.454;-6.180;2023-01-25T09:54:43;5.75;;;3.47;;
46429;SDS011;32131;53.454;-6.180;2023-01-25T09:57:14;8.50;;;4.10;;
46429;SDS011;32131;53.454;-6.180;2023-01-25T09:59:49;6.95;;;4.05;;
46429;SDS011;32131;53.454;-6.180;2023-01-25T10:02:30;7.20;;;4.00;;
46429;SDS011;32131;53.454;-6.180;2023-01-25T10:05:10;8.05;;;3.83;;
46429;SDS011;32131;53.454;-6.180;2023-01-25T10:07:53;8.85;;;3.65;;
46429;SDS011;32131;53.454;-6.180;2023-01-25T10:10:31;10.00;;;4.57;;
46429;SDS011;32131;53.454;-6.180;2023-01-25T10:13:07;7.95;;;4.50;;
46429;SDS011;32131;53.454;-6.180;2023-01-25T10:15:45;7.68;;;3.80;;
46429;SDS011;32131;53.454;-6.180;2023-01-25T10:18:21;7.75;;;3.85;;
46429;SDS011;32131;53.454;-6.180;2023-01-25T10:20:56;6.97;;;3.88;;
46429;SDS011;32131;53.454;-6.180;2023-01-25T10:23:35;7.15;;;3.70;;
46429;SDS011;32131;53.454;-6.180;2023-01-25T10:26:26;5.60;;;3.05;;
46429;SDS011;32131;53.454;-6.180;2023-01-25T10:28:58;6.35;;;3.97;;
46429;SDS011;32131;53.454;-6.180;2023-01-25T10:31:41;7.85;;;4.00;;
46429;SDS011;32131;53.454;-6.180;2023-01-25T10:34:16;7.10;;;3.70;;
46429;SDS011;32131;53.454;-6.180;2023-01-25T10:36:55;7.32;;;4.18;;
46429;SDS011;32131;53.454;-6.180;2023-01-25T10:39:35;6.80;;;3.65;;
46429;SDS011;32131;53.454;-6.180;2023-01-25T10:42:23;7.75;;;3.42;;
46429;SDS011;32131;53.454;-6.180;2023-01-25T10:44:57;7.18;;;2.92;;
46429;SDS011;32131;53.454;-6.180;2023-01-25T10:47:45;5.90;;;2.83;;
46429;SDS011;32131;53.454;-6.180;2023-01-25T10:53:29;6.07;;;2.80;;
46429;SDS011;32131;53.454;-6.180;2023-01-25T10:56:04;7.25;;;2.22;;
46429;SDS011;32131;53.454;-6.180;2023-01-25T10:58:52;5.00;;;1.92;;
46429;SDS011;32131;53.454;-6.180;2023-01-25T11:01:44;5.38;;;2.00;;
46429;SDS011;32131;53.454;-6.180;2023-01-25T11:04:26;4.65;;;1.70;;
46429;SDS011;32131;53.454;-6.180;2023-01-25T11:07:01;3.10;;;1.40;;
46429;SDS011;32131;53.454;-6.180;2023-01-25T11:09:33;2.97;;;1.15;;
46429;SDS011;32131;53.454;-6.180;2023-01-25T11:12:04;4.13;;;1.50;;
46429;SDS011;32131;53.454;-6.180;2023-01-25T11:14:46;1.48;;;0.77;;
46429;SDS011;32131;53.454;-6.180;2023-01-25T11:17:23;4.78;;;0.95;;
46429;SDS011;32131;53.454;-6.180;2023-01-25T11:22:49;1.13;;;0.60;;
46429;SDS011;32131;53.454;-6.180;2023-01-25T11:25:43;2.65;;;0.90;;
46429;SDS011;32131;53.454;-6.180;2023-01-25T11:28:45;3.70;;;1.05;;
46429;SDS011;32131;53.454;-6.180;2023-01-25T12:02:07;4.70;;;0.80;;
46429;SDS011;32131;53.454;-6.180;2023-01-25T12:13:02;5.25;;;1.35;;
46429;SDS011;32131;53.454;-6.180;2023-01-25T12:18:59;6.55;;;0.85;;
46429;SDS011;32131;53.454;-6.180;2023-01-25T12:22:28;10.93;;;1.60;;
46429;SDS011;32131;53.454;-6.180;2023-01-25T12:25:27;10.88;;;1.35;;
46429;SDS011;32131;53.454;-6.180;2023-01-25T12:28:21;10.85;;;1.25;;
46429;SDS011;32131;53.454;-6.180;2023-01-25T12:31:11;10.40;;;1.42;;
46429;SDS011;32131;53.454;-6.180;2023-01-25T12:33:49;10.82;;;1.75;;
46429;SDS011;32131;53.454;-6.180;2023-01-25T12:36:27;9.77;;;1.15;;
46429;SDS011;32131;53.454;-6.180;2023-01-25T12:39:05;4.90;;;1.05;;
46429;SDS011;32131;53.454;-6.180;2023-01-25T12:41:44;5.13;;;0.88;;
46429;SDS011;32131;53.454;-6.180;2023-01-25T12:44:36;17.00;;;1.27;;
46429;SDS011;32131;53.454;-6.180;2023-01-25T12:48:17;14.50;;;1.48;;
46429;SDS011;32131;53.454;-6.180;2023-01-25T12:50:57;14.25;;;1.45;;
46429;SDS011;32131;53.454;-6.180;2023-01-25T12:54:10;5.85;;;1.35;;
46429;SDS011;32131;53.454;-6.180;2023-01-25T12:57:10;5.93;;;1.38;;
46429;SDS011;32131;53.454;-6.180;2023-01-25T12:59:54;8.57;;;1.05;;
46429;SDS011;32131;53.454;-6.180;2023-01-25T13:09:21;10.43;;;1.48;;
46429;SDS011;32131;53.454;-6.180;2023-01-25T13:12:03;6.90;;;1.20;;
46429;SDS011;32131;53.454;-6.180;2023-01-25T13:14:36;6.07;;;1.05;;
46429;SDS011;32131;53.454;-6.180;2023-01-25T13:35:27;3.13;;;0.75;;
46429;SDS011;32131;53.454;-6.180;2023-01-25T13:48:21;5.82;;;0.93;;
46429;SDS011;32131;53.454;-6.180;2023-01-25T13:49:57;4.22;;;0.70;;
46429;SDS011;32131;53.454;-6.180;2023-01-25T13:53:22;5.97;;;1.50;;
46429;SDS011;32131;53.454;-6.180;2023-01-25T19:25:55;12.35;;;4.72;;
46429;SDS011;32131;53.454;-6.180;2023-01-25T19:28:25;14.23;;;4.00;;
46429;SDS011;32131;53.454;-6.180;2023-01-25T19:30:54;16.70;;;3.15;;
46429;SDS011;32131;53.454;-6.180;2023-01-25T19:33:23;9.23;;;1.98;;
46429;SDS011;32131;53.454;-6.180;2023-01-25T19:35:56;15.75;;;2.70;;
46429;SDS011;32131;53.454;-6.180;2023-01-25T19:38:25;16.15;;;2.55;;
46429;SDS011;32131;53.454;-6.180;2023-01-25T19:40:58;21.60;;;3.45;;
46429;SDS011;32131;53.454;-6.180;2023-01-25T19:43:30;16.17;;;2.75;;
46429;SDS011;32131;53.454;-6.180;2023-01-25T19:46:05;15.23;;;2.45;;
46429;SDS011;32131;53.454;-6.180;2023-01-25T19:48:35;13.07;;;2.38;;
46429;SDS011;32131;53.454;-6.180;2023-01-25T19:51:11;18.02;;;2.78;;
46429;SDS011;32131;53.454;-6.180;2023-01-25T19:53:43;18.00;;;2.95;;
46429;SDS011;32131;53.454;-6.180;2023-01-25T19:56:15;16.02;;;2.95;;
46429;SDS011;32131;53.454;-6.180;2023-01-25T19:58:45;14.48;;;2.67;;
46429;SDS011;32131;53.454;-6.180;2023-01-25T20:01:16;7.40;;;2.25;;
46429;SDS011;32131;53.454;-6.180;2023-01-25T20:03:46;16.67;;;2.35;;
46429;SDS011;32131;53.454;-6.180;2023-01-25T20:06:15;11.45;;;2.78;;
46429;SDS011;32131;53.454;-6.180;2023-01-25T20:08:51;15.02;;;2.88;;
46429;SDS011;32131;53.454;-6.180;2023-01-25T20:11:25;13.20;;;2.20;;
46429;SDS011;32131;53.454;-6.180;2023-01-25T20:13:55;12.98;;;1.90;;
46429;SDS011;32131;53.454;-6.180;2023-01-25T20:16:25;15.18;;;4.13;;
46429;SDS011;32131;53.454;-6.180;2023-01-25T20:18:55;18.17;;;4.07;;
46429;SDS011;32131;53.454;-6.180;2023-01-25T20:21:25;21.88;;;4.95;;
46429;SDS011;32131;53.454;-6.180;2023-01-25T20:23:56;16.60;;;3.25;;
46429;SDS011;32131;53.454;-6.180;2023-01-25T20:26:31;19.80;;;2.85;;
46429;SDS011;32131;53.454;-6.180;2023-01-25T20:29:03;12.68;;;3.75;;
46429;SDS011;32131;53.454;-6.180;2023-01-25T20:31:32;20.90;;;2.80;;
46429;SDS011;32131;53.454;-6.180;2023-01-25T20:34:02;10.95;;;2.42;;
46429;SDS011;32131;53.454;-6.180;2023-01-25T20:36:32;11.52;;;3.20;;
46429;SDS011;32131;53.454;-6.180;2023-01-25T20:39:02;17.80;;;3.17;;
46429;SDS011;32131;53.454;-6.180;2023-01-25T20:41:36;11.40;;;3.60;;
46429;SDS011;32131;53.454;-6.180;2023-01-25T20:44:04;18.88;;;3.60;;
46429;SDS011;32131;53.454;-6.180;2023-01-25T20:46:34;11.23;;;3.03;;
46429;SDS011;32131;53.454;-6.180;2023-01-25T20:51:33;18.08;;;3.70;;
46429;SDS011;32131;53.454;-6.180;2023-01-25T20:54:01;20.33;;;3.58;;
46429;SDS011;32131;53.454;-6.180;2023-01-25T20:56:30;15.32;;;3.08;;
46429;SDS011;32131;53.454;-6.180;2023-01-25T20:59:00;17.83;;;3.33;;
46429;SDS011;32131;53.454;-6.180;2023-01-25T21:01:29;18.00;;;4.00;;
46429;SDS011;32131;53.454;-6.180;2023-01-25T21:04:03;17.85;;;3.15;;
46429;SDS011;32131;53.454;-6.180;2023-01-25T21:06:35;15.70;;;3.35;;
46429;SDS011;32131;53.454;-6.180;2023-01-25T21:09:04;14.65;;;3.55;;
46429;SDS011;32131;53.454;-6.180;2023-01-25T21:11:32;19.85;;;2.75;;
46429;SDS011;32131;53.454;-6.180;2023-01-25T21:14:02;15.48;;;3.25;;
46429;SDS011;32131;53.454;-6.180;2023-01-25T21:16:31;18.42;;;3.53;;
46429;SDS011;32131;53.454;-6.180;2023-01-25T21:19:02;7.10;;;2.53;;
46429;SDS011;32131;53.454;-6.180;2023-01-25T21:21:34;18.20;;;2.83;;
46429;SDS011;32131;53.454;-6.180;2023-01-25T21:24:04;13.55;;;2.88;;
46429;SDS011;32131;53.454;-6.180;2023-01-25T21:26:34;19.67;;;3.43;;
46429;SDS011;32131;53.454;-6.180;2023-01-25T21:29:05;7.70;;;2.25;;
46429;SDS011;32131;53.454;-6.180;2023-01-25T21:31:35;13.13;;;3.88;;
46429;SDS011;32131;53.454;-6.180;2023-01-25T21:34:05;10.23;;;2.60;;
46429;SDS011;32131;53.454;-6.180;2023-01-25T21:36:34;18.40;;;3.50;;
46429;SDS011;32131;53.454;-6.180;2023-01-25T21:39:03;16.33;;;2.75;;
46429;SDS011;32131;53.454;-6.180;2023-01-25T21:41:31;15.02;;;3.47;;
46429;SDS011;32131;53.454;-6.180;2023-01-25T21:44:00;22.20;;;3.47;;
46429;SDS011;32131;53.454;-6.180;2023-01-25T21:46:47;11.38;;;2.72;;
46429;SDS011;32131;53.454;-6.180;2023-01-25T21:49:35;13.10;;;2.90;;
46429;SDS011;32131;53.454;-6.180;2023-01-25T21:52:21;18.05;;;3.67;;
46429;SDS011;32131;53.454;-6.180;2023-01-25T21:54:51;13.32;;;3.00;;
46429;SDS011;32131;53.454;-6.180;2023-01-25T21:57:20;24.63;;;3.95;;
46429;SDS011;32131;53.454;-6.180;2023-01-25T21:59:54;20.27;;;4.70;;
46429;SDS011;32131;53.454;-6.180;2023-01-25T22:02:26;15.38;;;3.10;;
46429;SDS011;32131;53.454;-6.180;2023-01-25T22:08:10;19.70;;;3.92;;
46429;SDS011;32131;53.454;-6.180;2023-01-25T22:10:41;19.88;;;4.50;;
46429;SDS011;32131;53.454;-6.180;2023-01-25T22:13:10;19.02;;;4.40;;
46429;SDS011;32131;53.454;-6.180;2023-01-25T22:15:42;22.90;;;4.20;;
46429;SDS011;32131;53.454;-6.180;2023-01-25T22:18:11;14.90;;;3.08;;
46429;SDS011;32131;53.454;-6.180;2023-01-25T22:20:40;21.73;;;3.40;;
46429;SDS011;32131;53.454;-6.180;2023-01-25T22:23:09;14.30;;;3.80;;
46429;SDS011;32131;53.454;-6.180;2023-01-25T22:25:37;15.32;;;3.00;;
46429;SDS011;32131;53.454;-6.180;2023-01-25T22:28:07;20.20;;;3.97;;
46429;SDS011;32131;53.454;-6.180;2023-01-25T22:30:40;21.20;;;3.35;;
46429;SDS011;32131;53.454;-6.180;2023-01-25T22:33:14;16.77;;;3.20;;
46429;SDS011;32131;53.454;-6.180;2023-01-25T22:35:44;17.90;;;3.65;;
46429;SDS011;32131;53.454;-6.180;2023-01-25T22:38:12;12.93;;;2.80;;
46429;SDS011;32131;53.454;-6.180;2023-01-25T22:40:41;14.68;;;3.90;;